Terminal Aerodrome Forecast
Issued by NWS

Home | Current Version | Previous Version | Text Only | Print | Product List | Glossary On
Versions: 1 2 3 4 5 6 7 8 9 10 11 12 13
000
FTUS46 KSTO 020500
TAFMHR
TAF
KMHR 020539Z 0206/0306 VRB05KT P6SM SKC
     FM021200 14005KT P6SM SCT015 BKN250
      TEMPO 0215/0219 5SM BR
     FM022000 17008KT P6SM BKN050
     FM030300 29004KT P6SM SCT050
      AMD NOT SKED=

USA.gov is the U.S. government's official web portal to all federal, state and local government web resources and services.